Terminal Aerodrome Forecast
Issued by NWS

Home | Current Version | Previous Version | Text Only | Print | Product List | Glossary On
Versions: 1 2 3 4 5 6 7 8 9 10 11 12 13 14 15 16 17 18 19 20 21 22
124
FTUS46 KLOX 070850 AAA
TAFLAX
TAF AMD
KLAX 070850Z 0709/0812 VRB05KT P6SM SKC
     FM071000 04005KT P6SM SKC
     FM072100 27009KT P6SM SKC
     FM080300 VRB05KT P6SM SKC=

USA.gov is the U.S. government's official web portal to all federal, state and local government web resources and services.